.
WxDataArchive / Data Records for 2009-06-18
2009-06-17 June 2009 2009-06-19

Data Records for Thursday, 18 June 2009

Time	Temp	Chill	HIndex	Humid	Dewpt	 Wind 	HiWind	WindDir	Rain 	Barom 
-----	----	-----	------	-----	-----	------	------	-------	-----	----- 
00:00	63.5	63.5	63.5	85	58.9	0	1	315	0.00	29.892 
00:05	63.7	63.7	63.7	86	59.4	0	1	315	0.00	29.892 
00:10	63.7	63.7	63.7	86	59.4	0	1	315	0.00	29.892 
00:15	63.7	63.7	63.7	86	59.4	0	1	315	0.00	29.890 
00:20	63.7	63.7	63.7	86	59.4	0	1	315	0.00	29.890 
00:25	63.7	63.7	63.7	85	59.1	0	2	315	0.00	29.890 
00:30	63.7	63.7	63.7	85	59.1	0	1	315	0.00	29.887 
00:35	63.5	63.5	63.5	85	58.9	0	3	315	0.00	29.887 
00:40	63.5	63.5	63.5	85	58.9	1	3	315	0.00	29.887 
00:45	63.4	63.4	63.4	85	58.8	0	1	315	0.00	29.886 
00:50	63.4	63.4	63.4	85	58.8	0	2	315	0.00	29.886 
00:55	63.2	63.2	63.2	85	58.6	0	1	315	0.00	29.886 
01:00	63.1	63.1	63.1	85	58.5	0	1	315	0.00	29.885 
01:05	62.9	62.9	62.9	86	58.6	0	1	315	0.00	29.885 
01:10	62.9	62.9	62.9	86	58.6	0	1	315	0.00	29.885 
01:15	62.7	62.7	62.7	86	58.4	0	1	315	0.00	29.884 
01:20	62.6	62.6	62.6	87	58.7	0	1	315	0.00	29.884 
01:25	62.4	62.4	62.4	87	58.5	0	0	---	0.00	29.884 
01:30	62.3	62.3	62.3	88	58.7	0	0	---	0.00	29.881 
01:35	62.1	62.1	62.1	88	58.5	0	1	315	0.00	29.881 
01:40	62.0	62.0	62.0	88	58.4	0	1	315	0.00	29.881 
01:45	62.0	62.0	62.0	89	58.7	0	1	315	0.00	29.877 
01:50	61.8	61.8	61.8	89	58.5	0	0	---	0.00	29.877 
01:55	61.6	61.6	61.6	89	58.3	0	1	315	0.00	29.877 
02:00	61.6	61.6	61.6	89	58.3	0	0	---	0.00	29.874 
02:05	61.5	61.5	61.5	90	58.5	0	1	315	0.00	29.874 
02:10	61.5	61.5	61.5	90	58.5	0	1	315	0.00	29.874 
02:15	61.3	61.3	61.3	90	58.3	0	1	315	0.00	29.866 
02:20	61.3	61.3	61.3	90	58.3	0	0	---	0.00	29.866 
02:25	61.2	61.2	61.2	90	58.2	0	1	315	0.00	29.866 
02:30	61.2	61.2	61.2	91	58.5	0	0	---	0.00	29.861 
02:35	61.0	61.0	61.0	91	58.4	0	0	---	0.00	29.861 
02:40	60.9	60.9	60.9	91	58.3	0	1	315	0.00	29.861 
02:45	60.9	60.9	60.9	91	58.3	0	1	315	0.00	29.858 
02:50	60.7	60.7	60.7	91	58.1	0	1	315	0.00	29.858 
02:55	60.5	60.5	60.5	91	57.9	0	0	---	0.00	29.858 
03:00	60.5	60.5	60.5	91	57.9	0	0	---	0.00	29.855 
03:05	60.4	60.4	60.4	91	57.8	0	1	315	0.00	29.855 
03:10	60.4	60.4	60.4	91	57.8	0	1	315	0.00	29.855 
03:15	60.4	60.4	60.4	92	58.1	0	1	315	0.00	29.865 
03:20	60.5	60.5	60.5	92	58.2	0	1	315	0.00	29.865 
03:25	60.5	60.5	60.5	92	58.2	0	1	315	0.00	29.865 
03:30	60.4	60.4	60.4	92	58.1	0	1	315	0.00	29.863 
03:35	60.4	60.4	60.4	92	58.1	0	0	---	0.00	29.863 
03:40	60.2	60.2	60.2	92	57.9	0	0	---	0.00	29.863 
03:45	60.2	60.2	60.2	92	57.9	0	0	---	0.00	29.861 
03:50	60.1	60.1	60.1	92	57.8	0	0	---	0.00	29.861 
03:55	59.9	59.9	59.9	92	57.6	0	0	---	0.00	29.861 
04:00	59.9	59.9	59.9	92	57.6	0	1	315	0.00	29.865 
04:05	59.9	59.9	59.9	92	57.6	0	0	---	0.00	29.865 
04:10	59.9	59.9	59.9	92	57.6	0	0	---	0.00	29.865 
04:15	59.8	59.8	59.8	92	57.5	0	0	---	0.00	29.864 
04:20	59.6	59.6	59.6	92	57.3	0	0	---	0.00	29.864 
04:25	59.6	59.6	59.6	92	57.3	0	0	---	0.00	29.864 
04:30	59.5	59.5	59.5	92	57.2	0	0	---	0.00	29.866 
04:35	59.3	59.3	59.3	92	57.0	0	0	---	0.00	29.866 
04:40	59.3	59.3	59.3	92	57.0	0	0	---	0.00	29.866 
04:45	59.3	59.3	59.3	92	57.0	0	0	---	0.00	29.865 
04:50	59.2	59.2	59.2	92	56.9	0	0	---	0.00	29.865 
04:55	59.2	59.2	59.2	92	56.9	0	0	---	0.00	29.865 
05:00	59.2	59.2	59.2	92	56.9	0	0	---	0.00	29.872 
05:05	59.2	59.2	59.2	92	56.9	0	1	315	0.00	29.872 
05:10	59.2	59.2	59.2	92	56.9	0	0	---	0.00	29.872 
05:15	59.2	59.2	59.2	92	56.9	0	0	---	0.00	29.873 
05:20	59.0	59.0	59.0	92	56.7	0	0	---	0.00	29.873 
05:25	59.0	59.0	59.0	92	56.7	0	0	---	0.00	29.873 
05:30	58.9	58.9	58.9	92	56.6	0	0	---	0.00	29.873 
05:35	58.9	58.9	58.9	92	56.6	0	0	---	0.00	29.873 
05:40	58.9	58.9	58.9	92	56.6	0	0	---	0.00	29.873 
05:45	58.7	58.7	58.7	92	56.4	0	0	---	0.00	29.880 
05:50	58.7	58.7	58.7	92	56.4	0	0	---	0.00	29.880 
05:55	58.6	58.6	58.6	92	56.3	0	0	---	0.00	29.880 
06:00	58.6	58.6	58.6	92	56.3	0	0	---	0.00	29.879 
06:05	58.6	58.6	58.6	92	56.3	0	0	---	0.00	29.879 
06:10	58.6	58.6	58.6	93	56.6	0	0	---	0.00	29.879 
06:15	58.6	58.6	58.6	93	56.6	0	0	---	0.00	29.885 
06:20	58.6	58.6	58.6	93	56.6	0	0	---	0.00	29.885 
06:25	58.4	58.4	58.4	93	56.4	0	0	---	0.00	29.885 
06:30	58.4	58.4	58.4	93	56.4	0	0	---	0.00	29.880 
06:35	58.4	58.4	58.4	93	56.4	0	0	---	0.00	29.880 
06:40	58.4	58.4	58.4	93	56.4	0	0	---	0.00	29.880 
06:45	58.6	58.6	58.6	93	56.6	0	0	---	0.00	29.888 
06:50	58.7	58.7	58.7	93	56.7	0	0	---	0.00	29.888 
06:55	58.9	58.9	58.9	93	56.9	0	0	---	0.00	29.888 
07:00	58.9	58.9	58.9	93	56.9	0	1	315	0.00	29.900 
07:05	59.0	59.0	59.0	93	57.0	0	0	---	0.00	29.900 
07:10	59.2	59.2	59.2	93	57.2	0	0	---	0.00	29.900 
07:15	59.3	59.3	59.3	93	57.3	0	0	---	0.00	29.904 
07:20	59.3	59.3	59.3	93	57.3	0	0	---	0.00	29.904 
07:25	59.5	59.5	59.5	93	57.5	0	0	---	0.00	29.904 
07:30	59.6	59.6	59.6	92	57.3	0	0	---	0.00	29.904 
07:35	59.6	59.6	59.6	92	57.3	0	0	---	0.00	29.904 
07:40	59.9	59.9	59.9	92	57.6	0	0	---	0.00	29.904 
07:45	60.1	60.1	60.1	92	57.8	0	0	---	0.00	29.911 
07:50	60.2	60.2	60.2	92	57.9	0	0	---	0.00	29.911 
07:55	60.4	60.4	60.4	92	58.1	0	0	---	0.00	29.911 
08:00	60.5	60.5	60.5	91	57.9	0	0	---	0.00	29.911 
08:05	60.7	60.7	60.7	91	58.1	0	0	---	0.00	29.911 
08:10	60.7	60.7	60.7	90	57.7	0	0	---	0.00	29.911 
08:15	61.0	61.0	61.0	90	58.0	0	0	---	0.00	29.914 
08:20	61.2	61.2	61.2	89	57.9	0	0	---	0.00	29.914 
08:25	61.3	61.3	61.3	89	58.0	0	0	---	0.00	29.914 
08:30	61.5	61.5	61.5	88	57.9	0	0	---	0.00	29.916 
08:35	61.6	61.6	61.6	88	58.0	0	0	---	0.00	29.916 
08:40	61.8	61.8	61.8	87	57.9	0	0	---	0.00	29.916 
08:45	62.0	62.0	62.0	87	58.1	0	1	315	0.00	29.934 
08:50	62.0	62.0	62.0	87	58.1	0	0	---	0.00	29.934 
08:55	62.1	62.1	62.1	87	58.2	0	1	315	0.00	29.934 
09:00	62.1	62.1	62.1	87	58.2	0	1	315	0.00	29.934 
09:05	62.3	62.3	62.3	87	58.4	0	0	---	0.00	29.934 
09:10	62.4	62.4	62.4	86	58.2	0	0	---	0.00	29.934 
09:15	62.6	62.6	62.6	86	58.3	0	1	315	0.00	29.942 
09:20	62.7	62.7	62.7	86	58.4	0	0	---	0.00	29.942 
09:25	62.9	62.9	62.9	86	58.6	0	0	---	0.00	29.942 
09:30	63.1	63.1	63.1	86	58.8	0	0	---	0.00	29.951 
09:35	63.2	63.2	63.2	85	58.6	0	1	315	0.00	29.951 
09:40	63.2	63.2	63.2	85	58.6	0	1	315	0.00	29.951 
09:45	63.4	63.4	63.4	85	58.8	0	1	315	0.00	29.951 
09:50	63.5	63.5	63.5	85	58.9	0	1	315	0.00	29.951 
09:55	63.7	63.7	63.7	84	58.8	0	0	---	0.00	29.951 
10:00	63.9	63.9	63.9	85	59.3	0	1	68	0.00	29.939 
10:05	64.0	64.0	64.0	84	59.1	0	0	---	0.00	29.939 
10:10	64.3	64.3	64.3	84	59.4	0	1	68	0.00	29.939 
10:15	64.5	64.5	64.5	84	59.6	0	1	68	0.00	29.929 
10:20	64.8	64.8	64.8	83	59.5	0	1	68	0.00	29.929 
10:25	65.2	65.2	65.2	84	60.2	0	1	68	0.00	29.929 
10:30	65.5	65.5	65.5	83	60.2	0	1	68	0.00	29.921 
10:35	65.6	65.6	65.6	82	59.9	1	3	68	0.00	29.921 
10:40	65.8	65.8	65.8	82	60.1	0	2	68	0.00	29.921 
10:45	66.0	66.0	66.0	82	60.3	0	2	68	0.00	29.915 
10:50	66.1	66.1	66.1	82	60.4	1	4	90	0.00	29.915 
10:55	66.1	66.1	66.1	82	60.4	1	5	112	0.00	29.915 
11:00	65.8	65.8	65.8	83	60.5	2	6	68	0.00	29.888 
11:05	65.8	65.8	65.8	84	60.8	2	6	90	0.00	29.888 
11:10	65.6	65.6	65.6	84	60.6	2	5	90	0.00	29.888 
11:15	65.6	65.6	65.6	84	60.6	2	4	90	0.00	29.860 
11:20	65.6	65.6	65.6	84	60.6	1	4	112	0.00	29.860 
11:25	66.1	66.1	66.1	84	61.1	0	2	90	0.00	29.860 
11:30	66.4	66.4	66.4	84	61.4	2	4	90	0.00	29.883 
11:35	66.8	66.8	66.8	82	61.1	2	5	90	0.00	29.883 
11:40	66.9	66.9	66.9	82	61.2	2	4	90	0.00	29.883 
11:45	67.3	67.3	67.3	83	62.0	2	5	90	0.00	29.877 
11:50	67.6	67.6	67.6	82	61.9	1	3	90	0.00	29.877 
11:55	68.1	68.1	68.1	81	62.0	2	4	90	0.00	29.877 
12:00	68.6	68.6	68.6	78	61.5	2	5	90	0.00	29.896 
12:05	68.9	68.9	68.9	79	62.1	2	4	68	0.00	29.896 
12:10	69.3	69.3	69.3	78	62.1	1	2	112	0.00	29.896 
12:15	70.1	70.1	70.1	76	62.2	0	2	90	0.00	29.900 
12:20	70.9	70.9	70.9	76	62.9	1	2	90	0.00	29.900 
12:25	71.8	71.8	71.8	75	63.4	0	1	90	0.00	29.900 
12:30	72.1	72.1	72.1	72	62.6	1	2	90	0.00	29.898 
12:35	72.5	72.5	72.5	72	62.9	1	3	90	0.00	29.898 
12:40	72.5	72.5	72.5	72	62.9	1	3	90	0.00	29.898 
12:45	72.7	72.7	72.7	74	63.9	2	5	112	0.00	29.894 
12:50	72.8	72.8	72.8	71	62.8	1	3	112	0.00	29.894 
12:55	73.0	73.0	73.0	72	63.4	2	4	112	0.00	29.894 
13:00	72.8	72.8	72.8	71	62.8	2	6	112	0.00	29.885 
13:05	72.8	72.8	72.8	72	63.2	1	5	90	0.00	29.885 
13:10	73.2	73.2	73.2	72	63.6	1	4	90	0.00	29.885 
13:15	73.7	73.7	73.7	70	63.3	1	5	135	0.00	29.885 
13:20	74.0	74.0	74.0	68	62.8	1	5	68	0.00	29.885 
13:25	74.6	74.6	74.6	69	63.7	0	3	90	0.00	29.885 
13:30	74.7	74.7	74.7	68	63.4	1	3	90	0.00	29.879 
13:35	75.3	75.3	77.0	69	64.4	1	3	112	0.00	29.879 
13:40	75.8	75.8	77.7	65	63.2	1	3	112	0.00	29.879 
13:45	76.0	76.0	77.8	67	64.2	1	4	90	0.00	29.876 
13:50	76.1	76.1	78.0	64	63.0	1	2	90	0.00	29.876 
13:55	76.3	76.3	78.2	64	63.2	1	4	90	0.00	29.876 
14:00	76.3	76.3	78.2	62	62.3	2	5	90	0.00	29.876 
14:05	76.3	76.3	78.2	63	62.8	1	4	90	0.00	29.876 
14:10	76.7	76.7	78.5	62	62.7	1	4	90	0.00	29.876 
14:15	76.7	76.7	78.5	62	62.7	1	3	90	0.00	29.866 
14:20	77.0	77.0	78.8	63	63.4	0	1	90	0.00	29.866 
14:25	77.7	77.7	79.4	61	63.2	1	3	90	0.00	29.866 
14:30	78.1	78.1	79.7	59	62.6	1	4	90	0.00	29.863 
14:35	78.1	78.1	79.8	61	63.5	1	2	90	0.00	29.863 
14:40	78.5	78.5	80.2	61	63.9	0	3	90	0.00	29.863 
14:45	79.2	79.2	80.8	59	63.6	0	3	90	0.00	29.864 
14:50	79.4	79.4	80.9	58	63.3	1	3	90	0.00	29.864 
14:55	79.9	79.9	81.5	58	63.8	0	2	270	0.00	29.864 
15:00	79.9	79.9	81.4	57	63.3	0	1	270	0.00	29.866 
15:05	80.1	80.1	81.9	60	64.9	1	2	270	0.00	29.866 
15:10	80.1	80.1	81.7	58	64.0	0	2	270	0.00	29.866 
15:15	80.7	80.7	82.8	61	66.0	1	3	112	0.00	29.858 
15:20	80.9	80.9	82.7	58	64.7	1	3	112	0.00	29.858 
15:25	81.1	81.1	83.0	59	65.4	1	4	112	0.00	29.858 
15:30	80.9	80.9	82.4	56	63.7	1	3	112	0.00	29.860 
15:35	80.9	80.9	82.5	57	64.2	0	2	68	0.00	29.860 
15:40	81.1	81.1	83.0	59	65.4	0	3	68	0.00	29.860 
15:45	81.2	81.2	83.2	59	65.5	0	2	315	0.00	29.859 
15:50	81.6	81.6	83.4	57	64.9	0	1	315	0.00	29.859 
15:55	81.6	81.6	83.5	58	65.4	0	2	292	0.00	29.859 
16:00	82.0	82.0	83.9	57	65.2	1	3	22	0.00	29.859 
16:05	82.2	82.2	83.6	54	63.9	1	3	90	0.00	29.859 
16:10	82.0	82.0	83.7	56	64.7	1	4	90	0.00	29.859 
16:15	82.2	82.2	83.6	54	63.9	0	1	90	0.00	29.860 
16:20	81.8	81.8	83.2	54	63.5	0	1	90	0.00	29.860 
16:25	81.8	81.8	83.3	55	64.0	0	1	90	0.00	29.860 
16:30	81.4	81.4	82.8	55	63.7	0	1	90	0.00	29.861 
16:35	81.1	81.1	82.6	56	63.9	0	1	90	0.00	29.861 
16:40	80.9	80.9	82.5	57	64.2	0	0	---	0.00	29.861 
16:45	80.7	80.7	82.3	57	64.0	0	1	90	0.00	29.859 
16:50	80.7	80.7	82.5	59	65.0	0	1	90	0.00	29.859 
16:55	80.5	80.5	82.1	57	63.8	0	1	90	0.00	29.859 
17:00	80.3	80.3	81.9	58	64.2	0	2	90	0.00	29.858 
17:05	80.3	80.3	82.1	59	64.6	0	0	---	0.00	29.858 
17:10	80.3	80.3	82.3	61	65.6	0	0	---	0.00	29.858 
17:15	80.3	80.3	82.1	59	64.6	0	3	90	0.00	29.838 
17:20	80.5	80.5	82.3	59	64.8	0	1	90	0.00	29.838 
17:25	80.7	80.7	82.5	59	65.0	1	3	90	0.00	29.838 
17:30	80.3	80.3	82.2	60	65.1	1	3	90	0.00	29.809 
17:35	80.1	80.1	82.2	62	65.9	2	4	90	0.00	29.809 
17:40	79.8	79.8	81.8	62	65.6	3	7	90	0.00	29.809 
17:45	79.2	79.2	81.1	62	65.0	3	6	90	0.00	29.766 
17:50	79.0	79.0	80.9	63	65.3	2	4	90	0.00	29.766 
17:55	79.0	79.0	80.9	63	65.3	2	6	112	0.00	29.766 
18:00	79.0	79.0	80.8	62	64.8	1	4	68	0.00	29.780 
18:05	79.2	79.2	81.1	62	65.0	1	5	90	0.00	29.780 
18:10	79.6	79.6	81.4	61	64.9	1	3	90	0.00	29.780 
18:15	80.1	80.1	81.7	58	64.0	1	4	90	0.00	29.809 
18:20	80.3	80.3	81.9	58	64.2	1	2	90	0.00	29.809 
18:25	80.5	80.5	82.2	58	64.3	1	3	180	0.00	29.809 
18:30	80.3	80.3	82.1	59	64.6	1	3	112	0.00	29.812 
18:35	80.3	80.3	81.9	58	64.2	0	1	112	0.00	29.812 
18:40	80.3	80.3	82.1	59	64.6	0	2	112	0.00	29.812 
18:45	80.3	80.3	82.1	59	64.6	0	2	112	0.00	29.812 
18:50	80.3	80.3	81.9	58	64.2	0	1	112	0.00	29.812 
18:55	80.5	80.5	82.2	58	64.3	0	1	112	0.00	29.812 
19:00	80.5	80.5	81.9	56	63.3	0	1	112	0.00	29.812 
19:05	80.5	80.5	81.9	56	63.3	1	3	112	0.00	29.812 
19:10	80.7	80.7	82.3	57	64.0	0	1	112	0.00	29.812 
19:15	80.7	80.7	82.3	57	64.0	1	2	112	0.00	29.809 
19:20	80.7	80.7	82.4	58	64.5	0	2	112	0.00	29.809 
19:25	80.7	80.7	82.3	57	64.0	0	1	112	0.00	29.809 
19:30	80.7	80.7	82.2	56	63.5	0	1	112	0.00	29.810 
19:35	80.7	80.7	82.2	56	63.5	0	1	112	0.00	29.810 
19:40	80.7	80.7	82.2	56	63.5	0	1	112	0.00	29.810 
19:45	80.7	80.7	82.2	56	63.5	1	2	112	0.00	29.816 
19:50	80.7	80.7	82.3	57	64.0	0	1	112	0.00	29.816 
19:55	80.5	80.5	81.9	56	63.3	0	0	---	0.00	29.816 
20:00	80.5	80.5	82.1	57	63.8	0	0	---	0.00	29.821 
20:05	80.5	80.5	82.1	57	63.8	0	1	112	0.00	29.821 
20:10	80.3	80.3	81.7	56	63.1	0	0	---	0.00	29.821 
20:15	80.1	80.1	81.6	57	63.5	0	2	112	0.00	29.823 
20:20	79.9	79.9	81.4	57	63.3	0	1	112	0.00	29.823 
20:25	79.8	79.8	81.3	57	63.2	0	1	112	0.00	29.823 
20:30	79.6	79.6	81.2	58	63.5	0	1	112	0.00	29.822 
20:35	79.6	79.6	81.3	59	64.0	0	0	---	0.00	29.822 
20:40	79.2	79.2	80.9	60	64.1	0	0	---	0.00	29.822 
20:45	79.0	79.0	80.8	61	64.4	0	0	---	0.00	29.829 
20:50	78.6	78.6	80.3	61	64.0	0	1	112	0.00	29.829 
20:55	78.5	78.5	80.3	62	64.4	0	1	112	0.00	29.829 
21:00	78.1	78.1	79.9	63	64.5	0	0	---	0.00	29.829 
21:05	77.9	77.9	79.7	64	64.7	0	0	---	0.00	29.829 
21:10	77.7	77.7	79.5	64	64.5	0	1	112	0.00	29.829 
21:15	77.4	77.4	79.2	64	64.2	0	1	112	0.00	29.828 
21:20	77.2	77.2	79.0	64	64.1	0	0	---	0.00	29.828 
21:25	76.8	76.8	78.6	64	63.7	0	2	112	0.00	29.828 
21:30	76.7	76.7	78.5	65	64.0	0	2	112	0.00	29.829 
21:35	76.5	76.5	78.3	65	63.8	0	1	112	0.00	29.829 
21:40	76.3	76.3	78.1	65	63.6	0	1	112	0.00	29.829 
21:45	76.1	76.1	77.9	66	63.9	0	1	112	0.00	29.839 
21:50	76.0	76.0	77.8	67	64.2	0	3	112	0.00	29.839 
21:55	75.6	75.6	77.4	67	63.9	2	4	112	0.00	29.839 
22:00	75.6	75.6	77.4	67	63.9	0	2	112	0.00	29.841 
22:05	75.4	75.4	77.2	68	64.1	0	0	---	0.00	29.841 
22:10	75.3	75.3	77.1	68	64.0	0	0	---	0.00	29.841 
22:15	74.9	74.9	74.9	69	64.0	0	0	---	0.00	29.842 
22:20	74.7	74.7	74.7	69	63.8	0	0	---	0.00	29.842 
22:25	74.4	74.4	74.4	70	64.0	0	0	---	0.00	29.842 
22:30	74.2	74.2	74.2	70	63.8	0	1	112	0.00	29.842 
22:35	74.0	74.0	74.0	70	63.6	0	0	---	0.00	29.842 
22:40	74.0	74.0	74.0	70	63.6	0	0	---	0.00	29.842 
22:45	74.0	74.0	74.0	70	63.6	0	0	---	0.00	29.844 
22:50	74.0	74.0	74.0	71	64.0	0	0	---	0.00	29.844 
22:55	73.7	73.7	73.7	71	63.7	0	0	---	0.00	29.844 
23:00	73.5	73.5	73.5	72	63.9	0	0	---	0.00	29.843 
23:05	73.2	73.2	73.2	73	64.0	0	0	---	0.00	29.843 
23:10	73.0	73.0	73.0	73	63.8	0	0	---	0.00	29.843 
23:15	72.7	72.7	72.7	74	63.9	0	0	---	0.00	29.840 
23:20	72.5	72.5	72.5	75	64.1	0	0	---	0.00	29.840 
23:25	72.3	72.3	72.3	76	64.3	0	0	---	0.00	29.840 
23:30	72.1	72.1	72.1	76	64.1	0	0	---	0.00	29.840 
23:35	71.8	71.8	71.8	77	64.2	0	0	---	0.00	29.840 
23:40	71.6	71.6	71.6	78	64.4	0	0	---	0.00	29.840 
23:45	71.3	71.3	71.3	78	64.1	0	0	---	0.00	29.835 
23:50	71.1	71.1	71.1	78	63.9	0	0	---	0.00	29.835 
23:55	70.9	70.9	70.9	80	64.4	0	0	---	0.00	29.835 

CoCoRaHS
IN-AL-39
A2 Web Hosting
Creative Commons License
GoDaddy
search engine by freefind advanced

loaded 2018-11-17 22:36:10 • last modified 2010-11-18 10:43:29
Privacy PolicyDisclaimer
• wx.awcolley.com is powered by PmWiki v.2002016 •
• all content (unless otherwise noted) © 2018 A W Colley